Time;durP1;ratioP1;P1;durP2;ratioP2;P2;SDS_P1;SDS_P2;PMS_P1;PMS_P2;Temp;Humidity;BMP_temperature;BMP_pressure;BME280_temperature;BME280_humidity;BME280_pressure;Samples;Min_cycle;Max_cycle;Signal;HPM_P1;HPM_P2
2023/10/25 03:02:39;;;;;;;0.40;0.32;;;26.80;37.90;;;;;;4217256;22;46409;-49
2023/10/25 03:05:05;;;;;;;0.50;0.30;;;26.80;38.00;;;;;;4913251;28;45040;-50
2023/10/25 03:07:31;;;;;;;0.40;0.40;;;26.80;38.00;;;;;;4868732;28;45518;-51
2023/10/25 03:09:57;;;;;;;0.70;0.40;;;26.80;37.90;;;;;;4935275;28;45164;-50
2023/10/25 03:12:22;;;;;;;0.37;0.37;;;26.80;38.00;;;;;;4921349;28;45418;-50
2023/10/25 03:14:48;;;;;;;0.90;0.55;;;26.80;37.90;;;;;;4930807;28;45829;-48
2023/10/25 03:17:13;;;;;;;0.63;0.43;;;26.80;38.00;;;;;;4907151;28;47157;-48
2023/10/25 03:19:39;;;;;;;0.70;0.40;;;26.80;37.90;;;;;;4929788;28;46926;-49
2023/10/25 03:22:06;;;;;;;0.80;0.50;;;26.70;37.80;;;;;;4914638;28;46410;-51
2023/10/25 03:24:32;;;;;;;0.90;0.50;;;26.70;37.90;;;;;;4925323;28;45220;-49
2023/10/25 03:26:57;;;;;;;0.90;0.40;;;26.70;37.80;;;;;;4922404;28;45566;-52
2023/10/25 03:29:23;;;;;;;1.73;0.40;;;26.70;37.90;;;;;;4916957;28;45220;-50
2023/10/25 03:31:48;;;;;;;0.80;0.40;;;26.70;37.90;;;;;;4915516;28;45458;-48
2023/10/25 03:34:14;;;;;;;0.83;0.50;;;26.80;37.90;;;;;;4902291;28;46222;-50
2023/10/25 03:36:40;;;;;;;0.43;0.40;;;26.70;37.90;;;;;;4923755;28;45732;-48
2023/10/25 03:39:05;;;;;;;0.40;0.40;;;26.70;37.90;;;;;;4937598;28;45262;-47
2023/10/25 03:41:31;;;;;;;0.60;0.40;;;26.70;37.90;;;;;;4931714;28;46495;-51
2023/10/25 03:43:57;;;;;;;0.50;0.40;;;26.70;37.90;;;;;;4931978;28;44948;-50
2023/10/25 03:46:22;;;;;;;0.40;0.30;;;26.70;37.90;;;;;;4899916;28;46049;-48
2023/10/25 03:48:48;;;;;;;1.37;0.60;;;26.70;37.80;;;;;;4918913;28;45458;-47
2023/10/25 03:51:14;;;;;;;0.70;0.40;;;26.70;37.90;;;;;;4890898;28;45521;-52
2023/10/25 03:53:39;;;;;;;0.40;0.40;;;26.70;37.90;;;;;;4937119;28;44983;-48
2023/10/25 03:56:05;;;;;;;0.30;0.30;;;26.70;37.80;;;;;;4926739;28;45515;-49
2023/10/25 03:58:31;;;;;;;1.20;0.80;;;26.70;37.90;;;;;;4937792;28;45537;-48
2023/10/25 04:01:06;;;;;;;0.77;0.40;;;26.70;37.80;;;;;;4918914;28;46225;-48
2023/10/25 04:03:31;;;;;;;1.10;0.40;;;26.70;37.90;;;;;;4933725;28;44855;-50
2023/10/25 04:05:57;;;;;;;0.40;0.40;;;26.70;37.90;;;;;;4909560;28;45396;-48
2023/10/25 04:08:23;;;;;;;0.37;0.37;;;26.70;37.80;;;;;;4934315;28;45644;-51
2023/10/25 04:10:52;;;;;;;0.47;0.30;;;26.60;37.80;;;;;;4925533;28;45326;-53
2023/10/25 04:13:19;;;;;;;0.40;0.40;;;26.60;37.80;;;;;;4933327;28;45352;-52
2023/10/25 04:16:01;;;;;;;0.97;0.40;;;26.60;37.80;;;;;;4906966;28;45108;-49
2023/10/25 04:18:28;;;;;;;1.98;0.55;;;26.60;37.70;;;;;;4928885;28;45823;-50
2023/10/25 04:20:54;;;;;;;0.35;0.30;;;26.60;37.80;;;;;;4926315;28;45572;-50
2023/10/25 04:23:20;;;;;;;1.80;0.40;;;26.70;37.80;;;;;;4915372;28;45583;-54
2023/10/25 04:25:45;;;;;;;0.70;0.50;;;26.60;37.80;;;;;;4914464;28;45546;-51
2023/10/25 04:28:12;;;;;;;0.67;0.50;;;26.60;37.70;;;;;;4919620;28;45543;-50
2023/10/25 04:30:38;;;;;;;0.85;0.28;;;26.60;37.80;;;;;;4922757;28;46586;-50
2023/10/25 04:33:03;;;;;;;0.70;0.40;;;26.60;37.80;;;;;;4919961;28;45214;-53
2023/10/25 04:35:29;;;;;;;0.70;0.50;;;26.60;37.70;;;;;;4849794;28;45738;-50
2023/10/25 04:37:55;;;;;;;0.60;0.40;;;26.60;37.70;;;;;;4930306;28;45198;-49
2023/10/25 04:40:21;;;;;;;1.58;0.47;;;26.60;37.70;;;;;;4921854;28;45844;-51
2023/10/25 04:42:50;;;;;;;0.50;0.50;;;26.60;37.70;;;;;;4921100;28;44647;-50
2023/10/25 04:45:18;;;;;;;0.90;0.50;;;26.60;37.70;;;;;;4916411;28;45516;-47
2023/10/25 04:47:44;;;;;;;0.87;0.57;;;26.60;37.70;;;;;;4895470;28;45546;-48
2023/10/25 04:50:10;;;;;;;0.50;0.50;;;26.60;37.70;;;;;;4899301;28;46495;-49
2023/10/25 04:52:35;;;;;;;0.80;0.63;;;26.60;37.70;;;;;;4906865;28;45694;-51
2023/10/25 04:55:01;;;;;;;0.67;0.60;;;26.60;37.70;;;;;;4893842;28;45623;-48
2023/10/25 04:57:26;;;;;;;0.70;0.60;;;26.60;37.70;;;;;;4910215;28;45790;-50
2023/10/25 04:59:55;;;;;;;1.23;0.63;;;26.50;37.60;;;;;;4927996;28;46166;-48
2023/10/25 05:02:20;;;;;;;1.20;0.90;;;26.50;37.60;;;;;;4891524;28;46057;-48
2023/10/25 05:04:47;;;;;;;0.80;0.80;;;26.50;37.60;;;;;;4923015;28;45188;-48
2023/10/25 05:07:12;;;;;;;0.93;0.80;;;26.50;37.60;;;;;;4917315;28;46117;-48
2023/10/25 05:09:39;;;;;;;0.73;0.70;;;26.50;37.60;;;;;;4912779;28;45319;-48
2023/10/25 05:12:08;;;;;;;0.98;0.88;;;26.50;37.60;;;;;;4899642;28;45329;-47
2023/10/25 05:14:34;;;;;;;2.15;0.90;;;26.50;37.60;;;;;;4886845;28;45046;-54
2023/10/25 05:17:06;;;;;;;0.88;0.70;;;26.50;37.60;;;;;;4866032;28;45655;-48
2023/10/25 05:19:32;;;;;;;1.02;0.80;;;26.50;37.60;;;;;;4908159;28;45262;-50
2023/10/25 05:21:59;;;;;;;1.10;1.00;;;26.50;37.60;;;;;;4909707;28;47736;-48
2023/10/25 05:24:25;;;;;;;1.63;1.00;;;26.50;37.60;;;;;;4883162;28;52994;-48
2023/10/25 05:26:51;;;;;;;1.50;1.00;;;26.50;37.60;;;;;;4915588;28;45394;-52
2023/10/25 05:29:17;;;;;;;1.17;0.90;;;26.50;37.60;;;;;;4928497;28;47859;-48
2023/10/25 05:31:43;;;;;;;1.05;0.90;;;26.50;37.50;;;;;;4896171;28;45926;-52
2023/10/25 05:34:09;;;;;;;1.37;0.80;;;26.40;37.50;;;;;;4883230;28;45297;-50
2023/10/25 05:36:36;;;;;;;1.00;0.80;;;26.40;37.50;;;;;;4882182;28;45360;-48
2023/10/25 05:39:02;;;;;;;1.95;0.90;;;26.40;37.50;;;;;;4907268;28;46822;-49
2023/10/25 05:41:29;;;;;;;1.10;0.80;;;26.50;37.60;;;;;;4913304;28;45742;-49
2023/10/25 05:44:03;;;;;;;1.20;0.80;;;26.50;37.50;;;;;;4926536;28;45354;-48
2023/10/25 05:46:29;;;;;;;1.48;0.90;;;26.40;37.50;;;;;;4916802;28;45936;-51
2023/10/25 05:48:54;;;;;;;1.10;0.70;;;26.40;37.50;;;;;;4932070;28;45746;-49
2023/10/25 05:51:20;;;;;;;1.00;0.90;;;26.40;37.50;;;;;;4919343;28;45275;-49
2023/10/25 05:53:47;;;;;;;0.80;0.80;;;26.40;37.50;;;;;;4910588;28;45271;-51
2023/10/25 05:56:13;;;;;;;0.77;0.70;;;26.40;37.50;;;;;;4899440;28;45552;-51
2023/10/25 05:58:39;;;;;;;1.15;0.70;;;26.40;37.50;;;;;;4913868;28;46304;-52
2023/10/25 06:01:07;;;;;;;2.38;0.70;;;26.40;37.50;;;;;;4912440;28;45201;-51
2023/10/25 06:03:33;;;;;;;1.15;0.75;;;26.40;37.50;;;;;;4934683;28;45332;-51
2023/10/25 06:06:00;;;;;;;0.80;0.70;;;26.40;37.50;;;;;;4904913;28;45505;-50
2023/10/25 06:08:25;;;;;;;1.35;0.80;;;26.40;37.50;;;;;;4922231;28;46373;-51
2023/10/25 06:10:51;;;;;;;0.70;0.70;;;26.40;37.50;;;;;;4900806;28;45237;-49
2023/10/25 06:13:19;;;;;;;0.70;0.68;;;26.30;37.40;;;;;;4924770;28;61634;-48
2023/10/25 06:15:45;;;;;;;0.90;0.77;;;26.40;37.50;;;;;;4917381;28;45715;-52
2023/10/25 06:18:11;;;;;;;0.97;0.77;;;26.40;37.50;;;;;;4934583;28;45935;-50
2023/10/25 06:20:37;;;;;;;0.68;0.60;;;26.40;37.50;;;;;;4916136;28;45259;-49
2023/10/25 06:23:02;;;;;;;0.98;0.60;;;26.40;37.50;;;;;;4917132;28;44734;-52
2023/10/25 06:25:31;;;;;;;1.00;0.80;;;26.40;37.40;;;;;;4917843;28;45503;-52
2023/10/25 06:27:59;;;;;;;0.90;0.80;;;26.40;37.50;;;;;;4886696;28;45049;-52
2023/10/25 06:30:26;;;;;;;1.70;0.80;;;26.30;37.60;;;;;;4907773;28;45732;-49
2023/10/25 06:32:52;;;;;;;1.50;0.75;;;26.30;37.40;;;;;;4895639;28;45483;-51
2023/10/25 06:35:18;;;;;;;1.75;0.90;;;26.30;37.40;;;;;;4915777;28;45239;-51
2023/10/25 06:37:43;;;;;;;0.85;0.75;;;26.30;37.40;;;;;;4893200;28;45694;-48
2023/10/25 06:40:09;;;;;;;0.80;0.80;;;26.30;38.00;;;;;;4921846;28;45279;-52
2023/10/25 06:42:35;;;;;;;0.80;0.70;;;26.30;37.40;;;;;;4920774;28;46043;-50
2023/10/25 06:47:36;;;;;;;0.70;0.70;;;26.30;37.40;;;;;;4904743;28;47099;-48
2023/10/25 06:50:03;;;;;;;1.10;0.80;;;26.30;37.40;;;;;;4928157;28;45217;-48
2023/10/25 06:52:31;;;;;;;2.45;1.00;;;26.30;37.40;;;;;;4902074;28;44982;-48
2023/10/25 06:54:58;;;;;;;1.30;0.90;;;26.30;37.40;;;;;;4916370;28;45697;-51
2023/10/25 06:57:23;;;;;;;0.93;0.77;;;26.30;37.40;;;;;;4902282;28;46084;-49
2023/10/25 06:59:49;;;;;;;1.52;0.90;;;26.30;37.40;;;;;;4931633;28;45232;-50
2023/10/25 07:02:35;;;;;;;1.40;0.90;;;26.30;37.40;;;;;;4902755;28;45153;-49
2023/10/25 07:05:21;;;;;;;0.95;0.80;;;26.30;37.40;;;;;;4915767;28;45592;-49
2023/10/25 07:07:49;;;;;;;1.42;0.80;;;26.30;37.40;;;;;;4915543;28;45846;-50
2023/10/25 07:10:15;;;;;;;1.60;0.95;;;26.30;37.40;;;;;;4889250;28;46006;-51
2023/10/25 07:12:41;;;;;;;0.70;0.70;;;26.30;37.40;;;;;;4921320;28;44822;-48
2023/10/25 07:15:11;;;;;;;2.17;0.83;;;26.20;37.30;;;;;;4912352;28;45895;-51
2023/10/25 07:17:37;;;;;;;0.60;0.60;;;26.20;37.30;;;;;;4911775;28;45858;-50
2023/10/25 07:20:12;;;;;;;1.20;0.82;;;26.20;37.40;;;;;;4914228;28;45968;-50
2023/10/25 07:22:38;;;;;;;1.03;0.80;;;26.20;37.40;;;;;;4912061;28;45034;-48
2023/10/25 07:25:08;;;;;;;1.23;0.77;;;26.20;37.40;;;;;;4903698;28;45132;-48
2023/10/25 07:27:34;;;;;;;0.82;0.82;;;26.20;37.40;;;;;;4919505;28;45892;-51
2023/10/25 07:29:59;;;;;;;1.00;0.70;;;26.20;37.40;;;;;;4913839;28;45111;-48
2023/10/25 07:32:26;;;;;;;1.38;0.95;;;26.20;37.40;;;;;;4904880;28;45466;-51
2023/10/25 07:34:51;;;;;;;0.90;0.70;;;26.20;37.50;;;;;;4901561;28;45180;-48
2023/10/25 07:37:17;;;;;;;1.20;0.90;;;26.20;37.40;;;;;;4897086;28;45857;-48
2023/10/25 07:39:43;;;;;;;1.10;0.73;;;26.20;37.40;;;;;;4912823;28;45674;-49
2023/10/25 07:42:08;;;;;;;1.40;0.90;;;26.20;37.40;;;;;;4919743;28;45474;-51
2023/10/25 07:44:34;;;;;;;1.97;0.90;;;26.20;37.40;;;;;;4928704;28;45096;-51
2023/10/25 07:47:00;;;;;;;1.08;0.80;;;26.20;37.40;;;;;;4905639;28;45406;-48
2023/10/25 07:49:25;;;;;;;0.90;0.60;;;26.20;37.50;;;;;;4912880;28;45337;-50
2023/10/25 07:51:54;;;;;;;0.70;0.70;;;26.20;37.40;;;;;;4912664;28;45567;-51
2023/10/25 07:54:20;;;;;;;1.00;0.70;;;26.20;37.50;;;;;;4901216;28;45194;-48
2023/10/25 07:56:45;;;;;;;0.80;0.80;;;26.20;37.50;;;;;;4901215;28;45553;-47
2023/10/25 07:59:11;;;;;;;1.03;0.80;;;26.20;37.50;;;;;;4933704;28;45116;-47
2023/10/25 08:01:38;;;;;;;1.20;1.03;;;26.20;38.00;;;;;;4906686;28;45251;-48
2023/10/25 08:04:04;;;;;;;1.00;0.85;;;26.20;37.40;;;;;;4925857;28;44911;-48
2023/10/25 08:06:30;;;;;;;1.52;0.95;;;26.20;37.40;;;;;;4919644;28;46458;-48
2023/10/25 08:08:55;;;;;;;0.93;0.70;;;26.10;37.40;;;;;;4932276;28;45394;-48
2023/10/25 08:11:21;;;;;;;1.33;0.77;;;26.10;37.40;;;;;;4903602;28;45164;-49
2023/10/25 08:13:46;;;;;;;1.10;1.00;;;26.10;37.40;;;;;;4925375;28;45121;-47
2023/10/25 08:16:12;;;;;;;0.90;0.90;;;26.10;37.40;;;;;;4912194;28;45401;-49
2023/10/25 08:18:37;;;;;;;1.03;0.90;;;26.10;37.40;;;;;;4915237;28;45515;-47
2023/10/25 08:21:03;;;;;;;1.60;0.93;;;26.10;37.40;;;;;;4922573;28;45308;-51
2023/10/25 08:23:29;;;;;;;1.17;0.80;;;26.10;37.40;;;;;;4931541;28;45538;-51
2023/10/25 08:26:01;;;;;;;1.30;1.00;;;26.10;37.40;;;;;;4904025;28;47346;-51
2023/10/25 08:28:26;;;;;;;1.13;1.02;;;26.10;37.40;;;;;;4914882;28;45460;-48
2023/10/25 08:30:52;;;;;;;1.20;0.90;;;26.10;37.40;;;;;;4914222;28;45218;-52
2023/10/25 08:33:17;;;;;;;1.33;0.90;;;26.10;37.40;;;;;;4922383;28;45278;-54
2023/10/25 08:35:43;;;;;;;1.05;0.95;;;26.10;37.50;;;;;;4919248;28;45383;-50
2023/10/25 08:38:09;;;;;;;1.17;0.95;;;26.10;37.50;;;;;;4915161;28;45414;-48
2023/10/25 08:40:39;;;;;;;0.80;0.70;;;26.10;37.50;;;;;;4884839;28;45764;-49
2023/10/25 08:43:05;;;;;;;1.13;0.98;;;26.10;37.50;;;;;;4917130;28;45992;-51
2023/10/25 08:45:34;;;;;;;1.47;0.90;;;26.10;37.50;;;;;;4901932;28;46165;-51
2023/10/25 08:48:03;;;;;;;1.10;1.00;;;26.10;37.50;;;;;;4929283;28;45710;-51
2023/10/25 08:50:30;;;;;;;0.93;0.88;;;26.10;37.50;;;;;;4914566;28;46984;-50
2023/10/25 08:52:56;;;;;;;1.50;0.90;;;26.10;37.50;;;;;;4920010;28;45823;-48
2023/10/25 08:55:22;;;;;;;1.15;1.05;;;26.10;37.50;;;;;;4892339;28;45766;-48
2023/10/25 08:57:54;;;;;;;1.00;0.80;;;26.10;37.50;;;;;;4911261;28;45362;-49
2023/10/25 09:00:19;;;;;;;1.42;1.02;;;26.10;37.50;;;;;;4912744;28;45632;-49
2023/10/25 09:02:45;;;;;;;1.98;0.90;;;26.00;37.50;;;;;;4943149;28;45139;-49
2023/10/25 09:05:11;;;;;;;1.00;0.90;;;26.00;37.50;;;;;;4926554;28;47884;-50
2023/10/25 09:07:37;;;;;;;1.27;1.17;;;26.00;37.50;;;;;;4947135;28;45239;-50
2023/10/25 09:10:08;;;;;;;1.83;1.00;;;26.00;37.50;;;;;;4926584;28;45326;-49
2023/10/25 09:12:33;;;;;;;1.00;0.80;;;26.00;37.50;;;;;;4914525;28;45429;-48
2023/10/25 09:14:59;;;;;;;0.93;0.90;;;26.00;37.50;;;;;;4940061;28;45409;-52
2023/10/25 09:17:24;;;;;;;0.90;0.90;;;26.00;37.50;;;;;;4936436;28;45749;-50
2023/10/25 09:19:50;;;;;;;1.07;0.80;;;26.00;37.50;;;;;;4949419;28;46411;-50
2023/10/25 09:22:22;;;;;;;1.65;0.90;;;26.00;37.60;;;;;;4937503;28;46516;-48
2023/10/25 09:24:55;;;;;;;1.52;0.80;;;26.00;37.60;;;;;;4942175;28;45379;-53
2023/10/25 09:27:21;;;;;;;1.20;1.10;;;26.00;37.60;;;;;;4943493;28;45360;-49
2023/10/25 09:29:46;;;;;;;1.40;0.98;;;26.00;37.60;;;;;;4927172;28;45454;-51
2023/10/25 09:32:12;;;;;;;1.02;0.80;;;26.00;37.60;;;;;;4902020;28;45492;-50
2023/10/25 09:34:38;;;;;;;1.10;1.00;;;26.00;37.60;;;;;;4947980;28;45272;-48
2023/10/25 09:37:04;;;;;;;1.20;0.90;;;26.00;37.60;;;;;;4942391;28;45387;-49
2023/10/25 09:39:32;;;;;;;0.80;0.80;;;26.00;37.60;;;;;;4912297;28;45298;-51
2023/10/25 09:42:00;;;;;;;1.15;0.88;;;26.00;37.60;;;;;;4939756;28;45953;-50
2023/10/25 09:44:28;;;;;;;0.70;0.70;;;26.00;37.70;;;;;;4931723;28;45522;-50
2023/10/25 09:46:54;;;;;;;0.93;0.82;;;26.00;37.60;;;;;;4911042;28;45639;-52
2023/10/25 09:49:20;;;;;;;1.30;0.90;;;26.00;37.70;;;;;;4934580;28;45197;-48
2023/10/25 09:52:08;;;;;;;0.85;0.70;;;26.00;37.70;;;;;;4939999;28;45688;-49
2023/10/25 09:54:37;;;;;;;1.03;0.80;;;25.90;37.60;;;;;;4933567;28;46061;-49
2023/10/25 09:57:04;;;;;;;0.70;0.70;;;25.90;37.60;;;;;;4900893;28;45313;-50
2023/10/25 09:59:32;;;;;;;0.82;0.70;;;25.90;37.70;;;;;;4950043;28;45229;-51
2023/10/25 10:02:04;;;;;;;0.60;0.55;;;26.00;37.70;;;;;;4929921;28;46547;-48
2023/10/25 10:05:07;;;;;;;0.70;0.70;;;25.90;37.70;;;;;;4914309;28;46836;-52
2023/10/25 10:08:13;;;;;;;0.70;0.68;;;25.90;37.70;;;;;;4942449;28;45400;-49
2023/10/25 10:10:58;;;;;;;0.75;0.70;;;25.90;37.70;;;;;;4927027;28;45195;-51
2023/10/25 10:13:26;;;;;;;0.70;0.70;;;25.90;37.70;;;;;;4900967;28;45337;-52
2023/10/25 10:16:04;;;;;;;0.80;0.70;;;25.90;37.70;;;;;;4928765;28;45414;-53
2023/10/25 10:18:33;;;;;;;1.00;0.70;;;25.90;37.80;;;;;;4946540;28;45368;-52
2023/10/25 10:21:03;;;;;;;1.87;0.70;;;25.90;37.70;;;;;;4934634;28;45370;-50
2023/10/25 10:23:35;;;;;;;0.90;0.80;;;25.90;37.70;;;;;;4945911;28;45038;-54
2023/10/25 10:26:02;;;;;;;1.13;0.70;;;25.90;37.80;;;;;;4914446;28;46237;-50
2023/10/25 10:28:41;;;;;;;0.68;0.60;;;25.90;37.80;;;;;;4948406;28;45111;-49
2023/10/25 10:31:07;;;;;;;0.83;0.80;;;25.90;37.80;;;;;;4910821;28;45226;-52
2023/10/25 10:34:03;;;;;;;1.15;0.60;;;25.90;38.40;;;;;;4910810;28;45193;-51
2023/10/25 10:36:31;;;;;;;0.80;0.60;;;25.90;37.80;;;;;;4907487;28;46158;-49
2023/10/25 10:39:16;;;;;;;0.65;0.50;;;25.90;37.80;;;;;;4945109;28;45175;-50
2023/10/25 10:41:43;;;;;;;0.60;0.60;;;25.90;37.80;;;;;;4923038;28;45576;-49
2023/10/25 10:44:11;;;;;;;0.50;0.50;;;25.80;37.80;;;;;;4944536;28;45189;-48
2023/10/25 10:46:42;;;;;;;0.68;0.50;;;25.80;37.70;;;;;;4913395;28;45613;-48
2023/10/25 10:49:08;;;;;;;0.63;0.57;;;25.80;37.80;;;;;;4927794;28;45583;-49
2023/10/25 10:51:34;;;;;;;1.20;0.50;;;25.80;37.80;;;;;;4918456;28;45241;-48
2023/10/25 10:53:59;;;;;;;0.63;0.50;;;25.80;37.80;;;;;;4931057;28;46105;-49
2023/10/25 10:56:25;;;;;;;0.50;0.50;;;25.80;37.80;;;;;;4942223;28;45359;-49
2023/10/25 10:58:50;;;;;;;1.10;0.70;;;25.80;37.80;;;;;;4907389;28;45554;-51
2023/10/25 11:01:16;;;;;;;0.63;0.50;;;25.80;37.80;;;;;;4906654;28;45230;-52
2023/10/25 11:03:42;;;;;;;1.33;0.73;;;25.80;37.90;;;;;;4942388;28;45445;-49
2023/10/25 11:06:09;;;;;;;0.60;0.50;;;25.80;37.80;;;;;;4939256;28;45838;-48
2023/10/25 11:08:35;;;;;;;1.17;0.50;;;25.80;37.80;;;;;;4924312;28;45127;-52
2023/10/25 11:11:00;;;;;;;0.43;0.40;;;25.80;37.90;;;;;;4914225;28;45450;-49
2023/10/25 11:13:28;;;;;;;0.63;0.60;;;25.80;37.90;;;;;;4897120;28;45583;-52
2023/10/25 11:16:06;;;;;;;0.60;0.50;;;25.80;37.90;;;;;;4899609;28;45544;-50
2023/10/25 11:18:32;;;;;;;0.60;0.50;;;25.80;37.90;;;;;;4942159;28;45261;-51
2023/10/25 11:20:59;;;;;;;0.50;0.47;;;25.80;37.90;;;;;;4926197;28;45372;-51
2023/10/25 11:23:25;;;;;;;0.60;0.60;;;25.80;37.90;;;;;;4944960;28;45274;-51
2023/10/25 11:25:51;;;;;;;0.60;0.60;;;25.80;37.90;;;;;;4928425;28;46297;-51
2023/10/25 11:28:18;;;;;;;1.00;0.60;;;25.80;38.00;;;;;;4945617;28;44905;-49
2023/10/25 11:30:44;;;;;;;0.55;0.55;;;25.80;38.00;;;;;;4906759;28;45452;-52
2023/10/25 11:33:11;;;;;;;0.53;0.53;;;25.80;38.00;;;;;;4903814;28;45584;-51
2023/10/25 11:35:40;;;;;;;1.00;0.50;;;25.80;38.00;;;;;;4933576;28;45746;-50
2023/10/25 11:38:06;;;;;;;0.73;0.55;;;25.80;38.00;;;;;;4924082;28;45019;-51
2023/10/25 11:40:39;;;;;;;0.40;0.40;;;25.80;38.00;;;;;;4936893;28;46021;-50
2023/10/25 11:43:07;;;;;;;1.10;0.45;;;25.80;37.40;;;;;;4892175;28;45176;-51
2023/10/25 11:45:34;;;;;;;0.60;0.50;;;25.80;38.60;;;;;;4930022;28;46192;-50
2023/10/25 11:48:00;;;;;;;0.52;0.45;;;25.80;38.00;;;;;;4921242;28;45809;-51
2023/10/25 11:50:25;;;;;;;0.70;0.40;;;25.80;38.00;;;;;;4937121;28;47158;-51
2023/10/25 11:52:51;;;;;;;1.38;0.60;;;25.70;37.90;;;;;;4924052;28;47272;-50
2023/10/25 11:55:16;;;;;;;0.55;0.50;;;25.70;38.00;;;;;;4911716;28;45444;-51
2023/10/25 11:57:42;;;;;;;1.30;0.50;;;25.80;38.00;;;;;;4931092;28;45982;-51
2023/10/25 12:00:10;;;;;;;0.63;0.50;;;25.80;38.10;;;;;;4883260;28;50833;-50
2023/10/25 12:02:36;;;;;;;0.97;0.60;;;25.70;38.00;;;;;;4894299;28;45625;-49
2023/10/25 12:05:07;;;;;;;0.50;0.50;;;25.70;38.00;;;;;;4884043;28;45601;-48
2023/10/25 12:07:32;;;;;;;0.53;0.47;;;25.70;38.00;;;;;;4888913;28;45940;-53
2023/10/25 12:09:58;;;;;;;0.70;0.50;;;25.70;38.00;;;;;;4905611;28;45709;-50
2023/10/25 12:12:24;;;;;;;0.70;0.50;;;25.70;38.00;;;;;;4891652;28;45502;-52
2023/10/25 12:14:50;;;;;;;0.50;0.43;;;25.70;38.00;;;;;;4899670;28;46381;-51
2023/10/25 12:17:15;;;;;;;0.60;0.60;;;25.70;38.00;;;;;;4879748;28;46462;-51
2023/10/25 12:19:41;;;;;;;0.88;0.60;;;25.70;38.10;;;;;;4904417;28;45260;-49
2023/10/25 12:22:09;;;;;;;0.60;0.60;;;25.70;38.10;;;;;;4891134;28;50135;-48
2023/10/25 12:24:37;;;;;;;0.47;0.45;;;25.70;38.20;;;;;;4893884;28;45685;-49
2023/10/25 12:27:04;;;;;;;1.02;0.70;;;25.70;38.10;;;;;;4888144;28;46449;-49
2023/10/25 12:29:29;;;;;;;0.65;0.60;;;25.70;38.10;;;;;;4922259;28;46049;-50
2023/10/25 12:31:55;;;;;;;0.50;0.50;;;25.70;38.10;;;;;;4900242;28;45541;-50
2023/10/25 12:34:21;;;;;;;0.67;0.63;;;25.70;38.20;;;;;;4905502;28;47635;-49
2023/10/25 12:36:46;;;;;;;1.27;0.70;;;25.70;38.20;;;;;;4874217;28;48116;-48
2023/10/25 12:39:13;;;;;;;0.97;0.50;;;25.70;38.20;;;;;;4916019;28;45302;-48
2023/10/25 12:41:38;;;;;;;0.85;0.60;;;25.70;38.20;;;;;;4912991;28;45675;-49
2023/10/25 12:44:06;;;;;;;1.55;0.68;;;25.70;38.30;;;;;;4896584;28;45435;-48
2023/10/25 12:46:32;;;;;;;0.80;0.63;;;25.70;38.20;;;;;;4911065;28;45493;-47
2023/10/25 12:48:58;;;;;;;0.80;0.60;;;25.70;38.30;;;;;;4882046;28;47235;-53
2023/10/25 12:51:23;;;;;;;1.33;0.80;;;25.70;38.30;;;;;;4915966;28;45404;-52
2023/10/25 12:53:49;;;;;;;0.80;0.63;;;25.70;38.30;;;;;;4929322;28;46293;-49
2023/10/25 12:56:15;;;;;;;0.70;0.70;;;25.70;38.30;;;;;;4920820;28;45412;-48
2023/10/25 12:58:40;;;;;;;0.67;0.60;;;25.70;38.30;;;;;;4931134;28;45368;-52
2023/10/25 13:01:06;;;;;;;0.67;0.60;;;25.70;38.30;;;;;;4904678;28;45492;-49
2023/10/25 13:03:31;;;;;;;0.88;0.70;;;25.70;38.40;;;;;;4926870;28;45670;-50
2023/10/25 13:05:57;;;;;;;0.77;0.70;;;25.70;38.40;;;;;;4916743;28;45152;-49
2023/10/25 13:08:22;;;;;;;1.05;0.90;;;25.70;38.50;;;;;;4898426;28;45387;-50
2023/10/25 13:10:49;;;;;;;1.20;0.90;;;25.70;38.40;;;;;;4921242;28;45957;-48
2023/10/25 13:13:14;;;;;;;1.20;0.90;;;25.70;38.40;;;;;;4888140;28;45795;-49
2023/10/25 13:15:40;;;;;;;1.30;0.97;;;25.70;38.40;;;;;;4908496;28;45155;-51
2023/10/25 13:18:06;;;;;;;1.10;0.90;;;25.60;38.40;;;;;;4902140;28;44897;-49
2023/10/25 13:20:31;;;;;;;1.07;0.90;;;25.60;38.40;;;;;;4921129;28;45358;-52
2023/10/25 13:22:58;;;;;;;1.20;1.00;;;25.60;38.40;;;;;;4920933;28;45238;-52
2023/10/25 13:25:27;;;;;;;0.93;0.83;;;25.70;38.50;;;;;;4906010;28;45437;-50
2023/10/25 13:27:52;;;;;;;0.80;0.70;;;25.70;38.50;;;;;;4925773;28;45991;-51
2023/10/25 13:30:18;;;;;;;1.27;0.97;;;25.60;38.50;;;;;;4894679;28;45402;-52
2023/10/25 13:32:44;;;;;;;1.05;0.95;;;25.60;38.50;;;;;;4908612;28;45614;-50
2023/10/25 13:35:09;;;;;;;1.00;0.90;;;25.60;38.50;;;;;;4918236;28;46532;-50
2023/10/25 13:37:35;;;;;;;1.27;1.00;;;25.70;38.60;;;;;;4908617;28;45906;-50
2023/10/25 13:40:03;;;;;;;1.50;1.10;;;25.60;38.50;;;;;;4926323;28;45938;-52
2023/10/25 13:42:33;;;;;;;1.07;0.90;;;25.60;38.60;;;;;;4898986;28;46109;-49
2023/10/25 13:45:00;;;;;;;1.63;1.03;;;25.60;38.60;;;;;;4909286;28;45280;-50
2023/10/25 13:47:26;;;;;;;1.27;0.95;;;25.60;38.60;;;;;;4894245;28;45172;-50
2023/10/25 13:49:51;;;;;;;1.45;1.10;;;25.60;38.60;;;;;;4930331;28;45325;-50
2023/10/25 13:52:17;;;;;;;1.55;1.10;;;25.60;38.60;;;;;;4912659;28;45747;-52
2023/10/25 13:54:42;;;;;;;1.17;1.00;;;25.60;38.60;;;;;;4909506;28;46439;-49
2023/10/25 13:57:08;;;;;;;1.40;1.10;;;25.60;38.60;;;;;;4914276;28;45310;-50
2023/10/25 13:59:34;;;;;;;1.20;1.00;;;25.60;38.60;;;;;;4921042;28;45258;-50
2023/10/25 14:02:00;;;;;;;1.13;1.02;;;25.60;38.70;;;;;;4907716;28;46311;-50
2023/10/25 14:04:25;;;;;;;1.10;0.90;;;25.60;38.70;;;;;;4897834;28;45997;-52
2023/10/25 14:06:51;;;;;;;1.20;1.10;;;25.60;38.70;;;;;;4911906;28;44615;-49
2023/10/25 14:09:17;;;;;;;1.00;0.98;;;25.60;38.70;;;;;;4913738;28;45467;-49
2023/10/25 14:11:46;;;;;;;1.98;1.10;;;25.60;38.70;;;;;;4911573;28;45296;-52
2023/10/25 14:14:12;;;;;;;1.20;1.10;;;25.60;38.70;;;;;;4900025;28;45204;-49
2023/10/25 14:16:39;;;;;;;2.83;1.30;;;25.60;38.80;;;;;;4888128;28;45384;-51
2023/10/25 14:19:06;;;;;;;1.20;1.00;;;25.60;39.40;;;;;;4888169;28;46476;-52
2023/10/25 14:21:32;;;;;;;1.65;1.15;;;25.60;38.80;;;;;;4909814;28;45238;-53
2023/10/25 14:23:57;;;;;;;1.20;1.10;;;25.60;38.80;;;;;;4919194;28;45441;-49
2023/10/25 14:26:23;;;;;;;1.37;1.20;;;25.60;38.80;;;;;;4881011;28;45462;-51
2023/10/25 14:28:48;;;;;;;1.20;1.00;;;25.60;38.80;;;;;;4912502;28;45590;-53
2023/10/25 14:31:14;;;;;;;1.50;1.40;;;25.60;38.80;;;;;;4906785;28;46037;-52
2023/10/25 14:33:40;;;;;;;1.48;1.35;;;25.60;38.80;;;;;;4906689;28;45480;-52
2023/10/25 14:36:11;;;;;;;1.30;1.20;;;25.60;38.80;;;;;;4881599;28;45403;-51
2023/10/25 14:38:37;;;;;;;1.10;1.00;;;25.60;38.90;;;;;;4926604;28;46140;-51
2023/10/25 14:41:06;;;;;;;1.23;1.13;;;25.60;38.90;;;;;;4902463;28;46541;-49
2023/10/25 14:43:32;;;;;;;1.23;1.10;;;25.60;38.90;;;;;;4922192;28;46272;-52
2023/10/25 14:45:58;;;;;;;1.33;1.10;;;25.60;38.90;;;;;;4898516;28;45202;-54
2023/10/25 14:48:23;;;;;;;1.63;1.27;;;25.60;38.90;;;;;;4901303;28;45476;-50
2023/10/25 14:50:49;;;;;;;1.50;1.20;;;25.60;39.50;;;;;;4916773;28;45559;-53
2023/10/25 14:53:15;;;;;;;1.27;1.17;;;25.60;39.00;;;;;;4890843;28;45167;-54
2023/10/25 14:55:40;;;;;;;1.27;1.13;;;25.50;38.90;;;;;;4918734;28;45438;-52
2023/10/25 14:58:06;;;;;;;1.40;1.10;;;25.60;38.90;;;;;;4910894;28;46120;-51
2023/10/25 15:00:31;;;;;;;1.60;1.20;;;25.60;39.00;;;;;;4910388;28;45595;-52
2023/10/25 15:02:57;;;;;;;1.13;1.02;;;25.60;39.60;;;;;;4925147;28;45298;-49
2023/10/25 15:05:22;;;;;;;1.60;1.23;;;25.50;38.90;;;;;;4915161;28;45294;-52
2023/10/25 15:07:48;;;;;;;1.42;1.23;;;25.50;39.00;;;;;;4916926;28;45106;-53
2023/10/25 15:10:14;;;;;;;1.30;1.20;;;25.50;38.90;;;;;;4919413;28;45526;-50
2023/10/25 15:12:42;;;;;;;2.30;1.30;;;25.50;38.90;;;;;;4914887;28;46278;-49
2023/10/25 15:15:09;;;;;;;1.50;1.20;;;25.50;38.90;;;;;;4926134;28;45914;-52
2023/10/25 15:17:34;;;;;;;1.90;1.40;;;25.60;39.00;;;;;;4888637;28;46106;-50
2023/10/25 15:20:01;;;;;;;1.63;1.10;;;25.50;39.00;;;;;;4927396;28;46267;-49
2023/10/25 15:22:26;;;;;;;1.13;1.02;;;25.50;39.00;;;;;;4891626;28;45473;-50
2023/10/25 15:24:52;;;;;;;1.58;1.08;;;25.50;39.00;;;;;;4918824;28;45732;-52
2023/10/25 15:27:18;;;;;;;1.47;1.07;;;25.50;39.00;;;;;;4923843;28;45240;-51
2023/10/25 15:29:47;;;;;;;1.75;1.38;;;25.50;39.00;;;;;;4897465;28;45623;-52
2023/10/25 15:32:13;;;;;;;1.77;1.10;;;25.50;39.00;;;;;;4894588;28;44896;-50
2023/10/25 15:34:39;;;;;;;1.40;1.10;;;25.50;39.10;;;;;;4894047;28;45377;-50
2023/10/25 15:37:04;;;;;;;1.10;1.00;;;25.50;39.00;;;;;;4923690;28;45785;-51
2023/10/25 15:39:31;;;;;;;1.30;1.20;;;25.50;39.00;;;;;;4925401;28;49915;-50
2023/10/25 15:41:57;;;;;;;1.20;1.10;;;25.50;39.10;;;;;;4904255;28;45481;-51
2023/10/25 15:44:22;;;;;;;1.20;1.10;;;25.50;39.10;;;;;;4926207;28;45096;-50
2023/10/25 15:46:48;;;;;;;1.15;1.02;;;25.50;39.00;;;;;;4922114;28;46569;-48
2023/10/25 15:49:13;;;;;;;2.05;1.20;;;25.50;39.70;;;;;;4913038;28;45164;-49
2023/10/25 15:51:39;;;;;;;1.58;1.27;;;25.50;39.10;;;;;;4917794;28;45301;-48